Time;durP1;ratioP1;P1;durP2;ratioP2;P2;SDS_P1;SDS_P2;PMS_P1;PMS_P2;Temp;Humidity;BMP_temperature;BMP_pressure;BME280_temperature;BME280_humidity;BME280_pressure;Samples;Min_cycle;Max_cycle;Signal;HPM_P1;HPM_P2
2022/05/17 00:00:37;;;;;;;4.90;2.05;;;;;;;;;;5053063;28;20368;-85
2022/05/17 00:03:03;;;;;;;3.40;1.73;;;;;;;;;;5034010;28;20383;-87
2022/05/17 00:05:30;;;;;;;3.33;1.70;;;;;;;;;;5034152;28;20379;-88
2022/05/17 00:07:56;;;;;;;3.93;1.80;;;;;;;;;;5052112;28;20838;-85
2022/05/17 00:10:22;;;;;;;3.60;2.10;;;;;;;;;;5034342;28;20889;-87
2022/05/17 00:12:49;;;;;;;4.60;1.90;;;;;;;;;;5052113;28;20376;-86
2022/05/17 00:15:15;;;;;;;3.35;2.00;;;;;;;;;;5034264;28;20372;-85
2022/05/17 00:17:41;;;;;;;2.97;1.88;;;;;;;;;;5034153;28;20375;-86
2022/05/17 00:20:08;;;;;;;4.67;1.90;;;;;;;;;;5052041;28;20556;-85
2022/05/17 00:22:34;;;;;;;3.50;2.10;;;;;;;;;;5034721;28;20377;-86
2022/05/17 00:25:00;;;;;;;3.72;1.92;;;;;;;;;;5051996;28;20392;-87
2022/05/17 00:27:26;;;;;;;2.95;2.08;;;;;;;;;;5052170;28;20379;-86
2022/05/17 00:29:52;;;;;;;3.00;2.03;;;;;;;;;;5052255;28;20858;-85
2022/05/17 00:32:18;;;;;;;2.65;1.90;;;;;;;;;;5052855;28;20364;-87
2022/05/17 00:34:46;;;;;;;4.50;2.10;;;;;;;;;;5033551;28;20426;-86
2022/05/17 00:37:13;;;;;;;3.45;1.80;;;;;;;;;;5051411;28;20400;-86
2022/05/17 00:39:39;;;;;;;6.15;2.20;;;;;;;;;;5033408;28;20461;-85
2022/05/17 00:42:05;;;;;;;5.05;2.30;;;;;;;;;;5051438;28;20437;-87
2022/05/17 00:44:44;;;;;;;5.50;2.20;;;;;;;;;;5033438;28;20376;-85
2022/05/17 00:47:13;;;;;;;5.05;2.40;;;;;;;;;;5052127;28;20372;-85
2022/05/17 00:49:54;;;;;;;4.82;2.13;;;;;;;;;;5052448;28;20450;-86
2022/05/17 00:52:32;;;;;;;3.20;2.28;;;;;;;;;;5033171;28;20426;-86
2022/05/17 00:55:01;;;;;;;3.58;2.08;;;;;;;;;;5051968;28;20411;-86
2022/05/17 00:57:46;;;;;;;2.55;1.90;;;;;;;;;;5052406;28;20368;-87
2022/05/17 01:00:13;;;;;;;4.65;2.15;;;;;;;;;;5052241;28;20538;-86
2022/05/17 01:02:46;;;;;;;4.07;2.30;;;;;;;;;;5032952;28;20422;-85
2022/05/17 01:05:14;;;;;;;5.40;2.37;;;16.90;99.90;;;;;;5052001;28;20403;-85
2022/05/17 01:07:42;;;;;;;4.20;2.47;;;17.00;99.90;;;;;;5034747;28;20382;-86
2022/05/17 01:10:10;;;;;;;3.50;2.20;;;16.80;99.90;;;;;;5036475;28;20371;-87
2022/05/17 01:12:37;;;;;;;5.33;2.50;;;16.60;99.90;;;;;;5033670;28;20383;-87
2022/05/17 01:15:06;;;;;;;3.87;2.30;;;14.60;93.40;;;;;;5051933;28;20964;-87
2022/05/17 01:17:34;;;;;;;2.80;2.25;;;16.40;94.10;;;;;;5052736;28;20372;-85
2022/05/17 01:20:07;;;;;;;3.55;2.10;;;16.40;95.10;;;;;;5051076;28;20396;-86
2022/05/17 01:22:33;;;;;;;4.95;2.30;;;16.40;95.90;;;;;;5032969;28;20530;-85
2022/05/17 01:24:58;;;;;;;4.78;2.35;;;16.30;96.60;;;;;;5050544;28;20509;-85
2022/05/17 01:27:28;;;;;;;5.83;2.40;;;16.30;97.10;;;;;;5032794;28;20368;-87
2022/05/17 01:29:55;;;;;;;4.30;2.58;;;16.20;98.40;;;;;;5050242;28;20379;-85
2022/05/17 01:32:22;;;;;;;5.35;2.58;;;16.20;99.60;;;;;;5050197;28;20476;-85
2022/05/17 01:34:47;;;;;;;4.90;2.53;;;16.30;99.90;;;;;;5049938;28;20386;-86
2022/05/17 01:37:14;;;;;;;5.47;2.78;;;16.10;99.90;;;;;;5031996;28;20377;-86
2022/05/17 01:39:41;;;;;;;5.13;2.80;;;16.10;99.90;;;;;;5050239;28;20877;-85
2022/05/17 01:42:10;;;;;;;4.88;3.05;;;16.10;99.90;;;;;;5031839;28;20818;-86
2022/05/17 01:44:40;;;;;;;4.70;2.63;;;;;;;;;;5031457;28;21738;-86
2022/05/17 01:47:06;;;;;;;4.45;2.58;;;;;;;;;;5050142;28;20880;-86
2022/05/17 01:49:32;;;;;;;4.57;2.60;;;;;;;;;;5032266;28;20371;-87
2022/05/17 01:51:58;;;;;;;4.27;2.70;;;;;;;;;;5032436;28;20730;-86
2022/05/17 01:54:24;;;;;;;6.23;3.07;;;15.80;99.90;;;;;;5031179;28;20395;-86
2022/05/17 01:56:50;;;;;;;3.88;2.60;;;15.50;99.90;;;;;;5031892;28;20860;-86
2022/05/17 01:59:17;;;;;;;4.78;2.97;;;15.60;99.90;;;;;;5049307;28;20482;-85
2022/05/17 02:01:44;;;;;;;6.07;3.10;;;15.40;99.90;;;;;;5031846;28;20379;-87
2022/05/17 02:04:10;;;;;;;5.00;2.63;;;15.30;99.90;;;;;;5032579;28;20914;-86
2022/05/17 02:06:36;;;;;;;6.13;3.25;;;15.30;99.90;;;;;;5053965;28;20399;-87
2022/05/17 02:09:02;;;;;;;5.63;3.03;;;;;;;;;;5053707;28;20367;-87
2022/05/17 02:11:27;;;;;;;5.07;3.17;;;15.30;99.90;;;;;;5033840;28;20368;-86
2022/05/17 02:13:53;;;;;;;4.05;3.10;;;15.20;99.90;;;;;;5033422;28;20392;-88
2022/05/17 02:16:19;;;;;;;4.53;3.00;;;;;;;;;;5016208;28;20389;-87
2022/05/17 02:18:44;;;;;;;4.10;3.10;;;15.10;99.90;;;;;;5015678;28;20752;-86
2022/05/17 02:21:10;;;;;;;5.37;2.77;;;15.00;99.90;;;;;;5015831;28;20370;-86
2022/05/17 02:23:35;;;;;;;6.50;3.63;;;15.10;99.90;;;;;;5015641;28;20472;-87
2022/05/17 02:26:01;;;;;;;5.97;3.47;;;15.20;99.90;;;;;;5033354;28;20374;-88
2022/05/17 02:28:26;;;;;;;3.80;2.80;;;15.10;99.90;;;;;;5015279;28;20385;-86
2022/05/17 02:30:52;;;;;;;4.20;3.07;;;15.00;99.90;;;;;;5033401;28;20415;-86
2022/05/17 02:33:18;;;;;;;8.27;3.50;;;14.80;99.90;;;;;;5015261;28;20382;-87
2022/05/17 02:35:43;;;;;;;4.63;3.30;;;14.70;99.90;;;;;;5015815;28;20382;-86
2022/05/17 02:38:09;;;;;;;5.78;2.97;;;14.50;99.90;;;;;;5015249;28;20401;-85
2022/05/17 02:40:36;;;;;;;5.07;3.55;;;14.50;99.90;;;;;;5015500;28;20377;-86
2022/05/17 02:43:02;;;;;;;5.97;3.50;;;14.50;99.90;;;;;;5015338;28;20806;-84
2022/05/17 02:45:29;;;;;;;6.13;3.58;;;;;;;;;;5045631;28;20391;-86
2022/05/17 02:47:54;;;;;;;4.93;3.55;;;14.50;99.90;;;;;;5047793;28;20976;-84
2022/05/17 02:50:20;;;;;;;6.07;3.95;;;14.50;99.90;;;;;;5051984;28;20929;-84
2022/05/17 02:52:46;;;;;;;5.55;3.75;;;14.30;99.90;;;;;;5034866;28;20435;-85
2022/05/17 02:55:12;;;;;;;6.30;4.00;;;14.40;99.90;;;;;;5034810;28;20428;-85
2022/05/17 02:57:39;;;;;;;7.22;4.13;;;14.50;99.90;;;;;;5039754;28;20397;-84
2022/05/17 03:00:08;;;;;;;4.45;3.50;;;14.40;99.90;;;;;;5038364;28;20409;-84
2022/05/17 03:02:33;;;;;;;5.63;4.30;;;14.40;99.90;;;;;;5052438;28;20376;-86
2022/05/17 03:04:59;;;;;;;4.70;3.63;;;14.30;99.90;;;;;;5018023;28;20431;-85
2022/05/17 03:07:24;;;;;;;5.40;3.95;;;14.50;99.90;;;;;;5022015;28;20470;-85
2022/05/17 03:09:50;;;;;;;5.53;4.20;;;14.40;99.90;;;;;;5019245;28;20404;-85
2022/05/17 03:12:15;;;;;;;6.68;4.10;;;14.40;99.90;;;;;;5014228;28;20408;-86
2022/05/17 03:14:41;;;;;;;7.77;4.50;;;14.40;99.90;;;;;;5033554;28;20381;-84
2022/05/17 03:17:25;;;;;;;7.30;4.72;;;14.40;99.90;;;;;;5017968;28;20474;-83
2022/05/17 03:19:53;;;;;;;7.07;4.82;;;14.40;99.90;;;;;;5032772;28;20412;-84
2022/05/17 03:22:19;;;;;;;7.35;4.60;;;14.20;99.90;;;;;;5038560;28;20437;-84
2022/05/17 03:24:44;;;;;;;6.73;4.93;;;14.20;99.90;;;;;;5052001;28;20375;-85
2022/05/17 03:27:10;;;;;;;6.37;4.83;;;14.20;99.90;;;;;;5052053;28;20742;-84
2022/05/17 03:29:36;;;;;;;8.65;5.60;;;14.10;99.90;;;;;;5041439;28;20376;-84
2022/05/17 03:32:02;;;;;;;7.47;4.83;;;14.10;99.90;;;;;;5023736;28;20391;-86
2022/05/17 03:34:29;;;;;;;7.00;5.00;;;14.00;99.90;;;;;;5023027;28;20376;-86
2022/05/17 03:36:54;;;;;;;7.38;5.32;;;14.00;99.90;;;;;;5052002;28;20403;-85
2022/05/17 03:39:20;;;;;;;9.50;5.50;;;14.00;99.90;;;;;;5033727;28;20889;-85
2022/05/17 03:41:45;;;;;;;7.77;6.07;;;14.00;99.90;;;;;;5033973;28;20422;-86
2022/05/17 03:44:11;;;;;;;7.78;5.80;;;14.00;99.90;;;;;;5051848;28;20381;-85
2022/05/17 03:46:40;;;;;;;10.03;6.10;;;14.00;99.90;;;;;;5051087;28;20700;-85
2022/05/17 03:49:05;;;;;;;8.20;6.30;;;14.00;99.90;;;;;;5052183;28;20372;-86
2022/05/17 03:51:31;;;;;;;6.50;5.60;;;13.90;99.90;;;;;;5051854;28;21225;-85
2022/05/17 03:53:56;;;;;;;8.75;5.90;;;14.00;99.90;;;;;;5051368;28;20422;-87
2022/05/17 03:56:22;;;;;;;7.47;5.43;;;14.00;99.90;;;;;;5033409;28;20434;-84
2022/05/17 03:58:47;;;;;;;9.50;5.82;;;14.00;99.90;;;;;;5033765;28;20449;-87
2022/05/17 04:01:13;;;;;;;9.30;5.87;;;14.00;99.90;;;;;;5033226;28;20877;-85
2022/05/17 04:03:40;;;;;;;7.80;5.43;;;14.00;99.90;;;;;;5051068;28;20372;-85
2022/05/17 04:06:05;;;;;;;8.33;5.40;;;14.00;99.90;;;;;;5051386;28;20372;-85
2022/05/17 04:08:31;;;;;;;7.63;5.53;;;14.00;99.90;;;;;;5051035;28;20394;-84
2022/05/17 04:10:57;;;;;;;8.52;5.80;;;14.10;99.90;;;;;;5051048;28;20746;-84
2022/05/17 04:13:26;;;;;;;6.82;5.25;;;14.10;99.90;;;;;;5050964;28;20379;-85
2022/05/17 04:15:52;;;;;;;7.32;5.93;;;14.10;99.90;;;;;;5051522;28;20405;-85
2022/05/17 04:18:18;;;;;;;7.15;5.20;;;14.10;99.90;;;;;;5050940;28;20472;-86
2022/05/17 04:20:43;;;;;;;8.10;6.00;;;14.10;99.90;;;;;;5032948;28;20388;-87
2022/05/17 04:23:09;;;;;;;8.17;5.90;;;14.10;99.90;;;;;;5051106;28;20387;-85
2022/05/17 04:25:34;;;;;;;8.45;5.68;;;14.10;99.90;;;;;;5033004;28;20876;-85
2022/05/17 04:28:01;;;;;;;8.77;6.30;;;14.10;99.90;;;;;;5050482;28;20846;-85
2022/05/17 04:30:26;;;;;;;8.73;5.80;;;14.20;99.90;;;;;;5033024;28;20741;-85
2022/05/17 04:32:52;;;;;;;8.37;5.90;;;14.10;99.90;;;;;;5032947;28;20376;-86
2022/05/17 04:35:18;;;;;;;7.50;5.68;;;14.00;99.90;;;;;;5032989;28;20889;-85
2022/05/17 04:37:44;;;;;;;8.57;6.45;;;14.00;99.90;;;;;;5050736;28;20439;-85
2022/05/17 04:40:13;;;;;;;8.07;6.43;;;13.90;99.90;;;;;;5032627;28;20398;-85
2022/05/17 04:42:39;;;;;;;7.97;6.47;;;14.00;99.90;;;;;;5032486;28;20727;-85
2022/05/17 04:45:07;;;;;;;9.90;6.70;;;13.90;99.90;;;;;;5032600;28;20710;-85
2022/05/17 04:47:33;;;;;;;9.45;6.07;;;13.90;99.90;;;;;;5032663;28;20375;-86
2022/05/17 04:49:58;;;;;;;10.60;6.33;;;14.00;99.90;;;;;;5050587;28;20387;-86
2022/05/17 04:52:24;;;;;;;8.37;6.23;;;13.90;99.90;;;;;;5032457;28;20429;-85
2022/05/17 04:54:50;;;;;;;7.40;6.00;;;13.90;99.90;;;;;;5032474;28;20479;-86
2022/05/17 04:57:16;;;;;;;8.55;6.47;;;13.90;99.90;;;;;;5032433;28;20375;-85
2022/05/17 04:59:42;;;;;;;10.70;7.13;;;14.00;99.90;;;;;;5049260;28;20395;-84
2022/05/17 05:02:08;;;;;;;10.02;6.97;;;14.00;99.90;;;;;;5050154;28;20380;-85
2022/05/17 05:04:34;;;;;;;8.73;6.70;;;14.00;99.90;;;;;;5049726;28;20391;-84
2022/05/17 05:07:00;;;;;;;9.43;7.05;;;13.90;99.90;;;;;;5032040;28;20379;-83
2022/05/17 05:09:26;;;;;;;9.73;6.72;;;13.90;99.90;;;;;;5050957;28;20376;-83
2022/05/17 05:11:52;;;;;;;9.48;6.45;;;13.90;99.90;;;;;;5032098;28;20415;-83
2022/05/17 05:14:18;;;;;;;8.40;6.53;;;14.00;99.90;;;;;;5050088;28;20434;-83
2022/05/17 05:16:43;;;;;;;10.10;6.60;;;14.10;99.90;;;;;;5049770;28;20833;-84
2022/05/17 05:19:09;;;;;;;8.13;6.55;;;14.10;99.90;;;;;;5049388;28;20750;-84
2022/05/17 05:21:35;;;;;;;15.80;6.93;;;14.20;99.90;;;;;;5049924;28;20383;-85
2022/05/17 05:24:03;;;;;;;7.45;6.53;;;14.20;99.90;;;;;;5050094;28;20521;-85
2022/05/17 05:26:31;;;;;;;8.87;6.60;;;14.30;99.90;;;;;;5032013;28;20386;-86
2022/05/17 05:28:56;;;;;;;9.10;6.33;;;14.30;99.90;;;;;;5050021;28;20479;-85
2022/05/17 05:31:22;;;;;;;9.73;6.47;;;14.40;99.90;;;;;;5049852;28;21170;-85
2022/05/17 05:33:47;;;;;;;7.43;6.00;;;14.40;99.90;;;;;;5031693;28;20372;-86
2022/05/17 05:36:13;;;;;;;9.17;6.50;;;14.40;99.90;;;;;;5031695;28;20477;-85
2022/05/17 05:38:39;;;;;;;10.23;6.67;;;14.40;99.90;;;;;;5049634;28;20897;-84
2022/05/17 05:41:04;;;;;;;6.65;5.78;;;14.50;99.90;;;;;;5035450;28;20581;-85
2022/05/17 05:43:30;;;;;;;9.23;6.28;;;14.50;99.90;;;;;;5035296;28;20738;-84
2022/05/17 05:45:55;;;;;;;10.00;6.60;;;14.60;99.90;;;;;;5054113;28;20379;-85
2022/05/17 05:48:21;;;;;;;9.15;6.78;;;14.60;99.90;;;;;;5035709;28;20615;-85
2022/05/17 05:50:49;;;;;;;7.13;5.80;;;14.70;99.90;;;;;;5035522;28;20458;-85
2022/05/17 05:53:15;;;;;;;7.55;6.00;;;14.80;99.90;;;;;;5035468;28;20383;-85
2022/05/17 05:55:41;;;;;;;6.88;5.80;;;14.90;99.90;;;;;;5035404;28;20379;-87
2022/05/17 05:58:08;;;;;;;8.37;5.70;;;15.10;99.90;;;;;;5035994;28;20382;-85
2022/05/17 06:00:35;;;;;;;7.80;5.68;;;15.20;99.90;;;;;;5035741;28;20363;-85
2022/05/17 06:03:02;;;;;;;7.05;5.50;;;15.50;99.90;;;;;;5035463;28;20378;-85
2022/05/17 06:05:30;;;;;;;8.02;5.70;;;15.80;99.90;;;;;;5035369;28;20884;-85
2022/05/17 06:07:56;;;;;;;7.35;5.20;;;16.00;99.90;;;;;;5035996;28;20704;-86
2022/05/17 06:10:23;;;;;;;8.00;5.38;;;16.20;99.90;;;;;;5053438;28;20436;-85
2022/05/17 06:12:48;;;;;;;8.07;5.30;;;16.10;99.90;;;;;;5053388;28;20375;-85
2022/05/17 06:15:15;;;;;;;8.73;5.00;;;16.10;99.90;;;;;;5053331;28;20447;-87
2022/05/17 06:17:41;;;;;;;6.07;4.63;;;16.30;99.90;;;;;;5053294;28;20867;-84
2022/05/17 06:20:11;;;;;;;8.02;5.22;;;16.30;99.90;;;;;;5053136;28;20399;-84
2022/05/17 06:22:38;;;;;;;7.87;5.30;;;16.50;99.90;;;;;;5035533;28;20372;-84
2022/05/17 06:25:05;;;;;;;7.68;4.97;;;16.70;99.90;;;;;;5053268;28;20853;-85
2022/05/17 06:27:30;;;;;;;6.75;4.40;;;16.90;99.90;;;;;;5052938;28;20383;-86
2022/05/17 06:29:56;;;;;;;8.47;4.60;;;16.90;99.90;;;;;;5052890;28;20737;-86
2022/05/17 06:32:22;;;;;;;7.60;4.97;;;17.10;99.90;;;;;;5052958;28;20741;-85
2022/05/17 06:34:48;;;;;;;6.63;4.80;;;17.30;99.90;;;;;;5052880;28;20850;-86
2022/05/17 06:37:13;;;;;;;6.82;5.10;;;17.30;99.90;;;;;;5052623;28;20380;-85
2022/05/17 06:39:40;;;;;;;6.63;4.60;;;17.50;99.90;;;;;;5052793;28;20392;-85
2022/05/17 06:42:07;;;;;;;7.15;4.82;;;17.70;99.90;;;;;;5035047;28;20391;-87
2022/05/17 06:44:33;;;;;;;7.35;4.78;;;17.80;99.90;;;;;;5034949;28;20376;-85
2022/05/17 06:46:59;;;;;;;8.37;4.77;;;18.00;99.90;;;;;;5035033;28;20712;-83
2022/05/17 06:49:27;;;;;;;10.05;5.22;;;18.20;99.90;;;;;;5052718;28;20429;-85
2022/05/17 06:51:53;;;;;;;8.23;5.30;;;18.30;99.90;;;;;;5052526;28;20399;-85
2022/05/17 06:54:19;;;;;;;7.30;5.20;;;18.30;99.90;;;;;;5034798;28;20383;-84
2022/05/17 06:56:44;;;;;;;11.70;5.68;;;18.50;99.90;;;;;;5034716;28;20775;-83
2022/05/17 06:59:10;;;;;;;5.77;5.07;;;18.50;99.90;;;;;;5034792;28;20402;-84
2022/05/17 07:01:36;;;;;;;6.75;5.00;;;18.60;99.90;;;;;;5052732;28;20410;-84
2022/05/17 07:04:02;;;;;;;6.80;4.83;;;18.80;99.90;;;;;;5052452;28;20391;-84
2022/05/17 07:06:27;;;;;;;6.90;4.82;;;18.90;99.90;;;;;;5034641;28;20458;-84
2022/05/17 07:08:53;;;;;;;7.82;4.60;;;18.90;99.90;;;;;;5052483;28;20380;-85
2022/05/17 07:14:03;;;;;;;7.55;4.97;;;18.80;99.90;;;;;;5052706;28;20399;-85
2022/05/17 07:16:29;;;;;;;7.95;5.05;;;18.70;99.90;;;;;;5029388;28;20424;-85
2022/05/17 07:18:55;;;;;;;7.38;4.82;;;18.60;99.90;;;;;;5052561;28;20423;-84
2022/05/17 07:21:20;;;;;;;8.10;4.87;;;18.60;99.90;;;;;;5052562;28;20463;-85
2022/05/17 07:23:46;;;;;;;7.57;5.22;;;18.50;99.90;;;;;;5052178;28;20741;-85
2022/05/17 07:26:13;;;;;;;7.60;4.90;;;18.40;99.90;;;;;;5034460;28;20376;-85
2022/05/17 07:28:41;;;;;;;6.85;4.43;;;18.30;99.90;;;;;;5052156;28;20383;-86
2022/05/17 07:31:07;;;;;;;8.38;5.07;;;18.20;99.90;;;;;;5052396;28;20364;-83
2022/05/17 07:33:33;;;;;;;7.63;4.85;;;18.30;99.90;;;;;;5033985;28;20390;-84
2022/05/17 07:35:58;;;;;;;7.73;5.20;;;18.30;99.90;;;;;;5034335;28;20391;-86
2022/05/17 07:38:24;;;;;;;8.82;5.15;;;18.30;99.90;;;;;;5051648;28;20391;-86
2022/05/17 07:40:50;;;;;;;8.40;5.60;;;18.40;99.90;;;;;;5051479;28;20467;-85
2022/05/17 07:43:16;;;;;;;6.93;4.75;;;18.50;99.90;;;;;;5034106;28;20387;-86
2022/05/17 07:45:42;;;;;;;9.27;5.50;;;18.50;99.90;;;;;;5034087;28;20400;-86
2022/05/17 07:48:08;;;;;;;9.50;5.10;;;18.50;99.90;;;;;;5034020;28;20431;-85
2022/05/17 07:50:33;;;;;;;8.05;5.40;;;18.50;99.90;;;;;;5052307;28;20826;-86
2022/05/17 07:53:12;;;;;;;9.75;5.13;;;18.40;99.90;;;;;;5051934;28;20430;-86
2022/05/17 07:55:39;;;;;;;6.75;4.78;;;18.40;99.90;;;;;;5033519;28;20395;-86
2022/05/17 07:58:06;;;;;;;6.72;4.88;;;18.40;99.90;;;;;;5040002;28;20406;-85
2022/05/17 08:00:33;;;;;;;7.43;4.80;;;18.30;99.90;;;;;;5014161;28;20389;-86
2022/05/17 08:03:00;;;;;;;7.65;4.53;;;18.20;99.90;;;;;;5013082;28;20381;-85
2022/05/17 08:05:27;;;;;;;9.65;5.55;;;18.10;99.90;;;;;;5028512;28;20400;-86
2022/05/17 08:07:54;;;;;;;9.50;5.20;;;18.00;99.90;;;;;;5040176;28;20474;-87
2022/05/17 08:10:21;;;;;;;6.88;4.70;;;18.20;99.90;;;;;;5040501;28;20385;-87
2022/05/17 08:12:47;;;;;;;7.60;5.60;;;18.40;99.90;;;;;;5042460;28;20440;-84
2022/05/17 08:15:13;;;;;;;7.88;5.15;;;18.70;99.90;;;;;;5021867;28;20473;-87
2022/05/17 08:17:39;;;;;;;6.85;5.00;;;18.60;99.90;;;;;;5041709;28;20391;-86
2022/05/17 08:20:09;;;;;;;7.45;5.15;;;18.70;99.90;;;;;;5023387;28;20408;-86
2022/05/17 08:22:39;;;;;;;7.93;4.97;;;18.90;99.90;;;;;;5021796;28;20382;-83
2022/05/17 08:27:50;;;;;;;8.68;4.85;;;18.80;99.90;;;;;;5041754;28;20724;-87
2022/05/17 08:30:19;;;;;;;9.25;5.70;;;19.00;99.90;;;;;;5039632;28;20483;-87
2022/05/17 08:35:39;;;;;;;7.78;5.00;;;19.40;99.90;;;;;;5043807;28;20406;-86
2022/05/17 08:38:06;;;;;;;8.40;5.50;;;19.90;99.90;;;;;;5023574;28;20502;-88
2022/05/17 08:40:36;;;;;;;8.15;5.35;;;19.60;99.90;;;;;;5025883;28;20356;-85
2022/05/17 08:43:04;;;;;;;8.17;5.33;;;19.60;99.90;;;;;;5038414;28;20751;-87
2022/05/17 08:45:36;;;;;;;7.80;5.18;;;19.60;99.90;;;;;;5022254;28;20384;-87
2022/05/17 08:48:04;;;;;;;8.82;5.20;;;19.80;99.90;;;;;;5040186;28;20373;-88
2022/05/17 08:50:33;;;;;;;8.07;5.17;;;20.30;99.90;;;;;;5021770;28;20446;-84
2022/05/17 08:52:59;;;;;;;7.03;4.82;;;20.50;99.90;;;;;;5041094;28;20430;-88
2022/05/17 08:55:34;;;;;;;8.90;4.83;;;20.50;99.90;;;;;;5047130;28;20430;-87
2022/05/17 08:58:20;;;;;;;7.57;4.90;;;20.60;99.90;;;;;;5040787;28;20371;-85
2022/05/17 09:01:02;;;;;;;9.68;5.25;;;20.50;99.90;;;;;;5019574;28;20390;-87
2022/05/17 09:03:39;;;;;;;7.88;4.93;;;20.10;99.90;;;;;;5053981;28;20477;-87
2022/05/17 09:06:05;;;;;;;8.70;4.80;;;20.10;99.90;;;;;;5039174;28;20378;-88
2022/05/17 09:08:41;;;;;;;8.87;4.80;;;20.20;99.90;;;;;;5023887;28;20373;-88
2022/05/17 09:11:22;;;;;;;8.65;5.55;;;20.40;99.90;;;;;;5040681;28;20844;-87
2022/05/17 09:13:57;;;;;;;8.68;5.20;;;20.50;99.90;;;;;;5022650;28;20406;-88
2022/05/17 09:16:25;;;;;;;8.73;5.00;;;20.60;99.90;;;;;;5053668;28;20418;-87
2022/05/17 09:18:51;;;;;;;8.80;5.28;;;20.80;99.90;;;;;;5022870;28;20397;-88
2022/05/17 09:21:33;;;;;;;8.33;5.10;;;20.80;99.90;;;;;;5021230;28;20370;-87
2022/05/17 09:24:04;;;;;;;7.53;5.28;;;20.80;99.90;;;;;;5039271;28;20852;-88
2022/05/17 09:26:31;;;;;;;10.27;6.05;;;20.60;99.90;;;;;;5023772;28;20722;-88
2022/05/17 09:29:12;;;;;;;11.95;7.13;;;20.60;99.90;;;;;;5025891;28;20396;-86
2022/05/17 09:31:38;;;;;;;10.23;6.35;;;20.60;99.90;;;;;;5040030;28;20800;-87
2022/05/17 09:34:06;;;;;;;10.65;5.82;;;20.60;99.90;;;;;;5021745;28;20381;-88
2022/05/17 10:20:17;;;;;;;7.22;5.75;;;19.80;99.90;;;;;;5066086;28;20866;-89
2022/05/17 10:23:01;;;;;;;9.13;6.18;;;20.00;99.90;;;;;;5053943;28;20480;-91
2022/05/17 10:25:46;;;;;;;10.83;6.20;;;20.10;99.90;;;;;;5038591;28;20377;-87
2022/05/17 10:28:26;;;;;;;9.50;6.40;;;20.40;99.90;;;;;;5057219;28;20427;-87
2022/05/17 10:31:01;;;;;;;8.20;5.60;;;20.50;99.90;;;;;;5038847;28;20782;-88
2022/05/17 10:33:49;;;;;;;9.68;6.00;;;20.70;99.90;;;;;;5037226;28;20377;-87
2022/05/17 10:36:26;;;;;;;7.50;5.90;;;20.80;99.90;;;;;;5056779;28;20389;-85
2022/05/17 10:39:35;;;;;;;8.00;5.30;;;21.10;99.90;;;;;;5058166;28;20415;-87
2022/05/17 10:42:02;;;;;;;7.45;4.78;;;21.30;99.90;;;;;;4995260;28;20389;-87
2022/05/17 10:44:47;;;;;;;8.95;5.28;;;21.70;99.90;;;;;;4982027;28;20392;-87
2022/05/17 10:47:41;;;;;;;6.22;4.88;;;22.10;99.90;;;;;;5036176;28;20395;-89
2022/05/17 10:50:32;;;;;;;8.05;5.03;;;22.10;99.90;;;;;;5030058;28;20529;-90
2022/05/17 10:53:06;;;;;;;7.63;5.28;;;21.80;99.90;;;;;;5057776;28;20379;-88
2022/05/17 10:55:55;;;;;;;8.32;5.53;;;21.70;99.90;;;;;;5059000;28;20474;-87
2022/05/17 10:58:24;;;;;;;9.82;5.68;;;21.70;99.90;;;;;;5037437;28;20403;-89
2022/05/17 11:01:05;;;;;;;7.13;5.32;;;22.00;99.90;;;;;;5057458;28;20385;-88
2022/05/17 11:04:08;;;;;;;8.95;5.85;;;22.20;99.90;;;;;;5038619;28;20393;-89
2022/05/17 11:06:41;;;;;;;9.05;5.70;;;22.10;99.90;;;;;;5038901;28;20389;-90
2022/05/17 11:09:30;;;;;;;7.60;4.95;;;22.20;99.90;;;;;;5056111;28;20380;-90
2022/05/17 11:12:09;;;;;;;6.93;4.85;;;22.40;99.90;;;;;;5058790;28;20375;-90
2022/05/17 11:14:47;;;;;;;8.70;5.20;;;22.60;99.90;;;;;;5057802;28;20394;-88
2022/05/17 11:17:32;;;;;;;7.22;4.90;;;;;;;;;;5038715;28;20488;-85
2022/05/17 11:20:16;;;;;;;7.90;5.32;;;22.70;99.90;;;;;;5039933;28;20433;-87
2022/05/17 11:22:50;;;;;;;8.52;5.53;;;22.70;99.90;;;;;;5034183;28;20385;-86
2022/05/17 11:25:58;;;;;;;6.65;5.00;;;22.60;99.90;;;;;;5037257;28;20397;-86
2022/05/17 11:29:01;;;;;;;8.25;5.85;;;22.80;99.90;;;;;;5029866;28;20429;-87
2022/05/17 11:31:53;;;;;;;6.53;5.40;;;22.80;99.90;;;;;;5041720;28;20397;-84
2022/05/17 11:34:43;;;;;;;6.05;5.30;;;22.90;99.90;;;;;;5022489;28;20838;-88
2022/05/17 11:37:32;;;;;;;7.18;5.10;;;22.90;99.90;;;;;;5035346;28;20930;-89
2022/05/17 11:39:59;;;;;;;7.55;5.13;;;23.00;99.90;;;;;;5025522;28;20395;-86
2022/05/17 11:43:39;;;;;;;7.60;5.00;;;23.20;99.90;;;;;;5024276;28;20389;-86
2022/05/17 11:45:41;;;;;;;7.13;5.07;;;23.20;99.90;;;;;;5039898;28;20909;-87
2022/05/17 11:48:15;;;;;;;6.65;4.80;;;23.10;99.90;;;;;;5023331;28;20401;-85
2022/05/17 11:50:55;;;;;;;8.27;5.10;;;23.00;99.90;;;;;;5040395;28;20377;-82
2022/05/17 11:53:23;;;;;;;6.85;4.57;;;23.00;99.90;;;;;;5040178;28;20731;-84
2022/05/17 11:56:14;;;;;;;5.60;4.65;;;23.30;99.90;;;;;;5042211;28;20379;-87
2022/05/17 11:58:42;;;;;;;7.13;4.45;;;23.40;99.90;;;;;;5025117;28;20460;-87
2022/05/17 12:01:44;;;;;;;6.18;4.32;;;23.50;99.90;;;;;;5025439;28;20460;-89
2022/05/17 12:04:28;;;;;;;8.50;4.85;;;23.60;99.90;;;;;;5026212;28;20380;-85
2022/05/17 12:06:54;;;;;;;6.30;4.40;;;23.60;99.90;;;;;;5041367;28;20388;-90
2022/05/17 12:09:34;;;;;;;6.18;4.00;;;23.70;99.90;;;;;;5045616;28;20488;-86
2022/05/17 12:12:08;;;;;;;7.25;4.65;;;24.10;99.90;;;;;;5027666;28;20383;-90
2022/05/17 12:14:36;;;;;;;7.40;4.22;;;24.30;99.90;;;;;;5025578;28;20382;-88
2022/05/17 12:17:07;;;;;;;5.90;4.18;;;24.30;99.90;;;;;;5040380;28;20477;-87
2022/05/17 12:19:45;;;;;;;4.57;3.70;;;24.30;99.90;;;;;;5023761;28;20408;-89
2022/05/17 12:22:24;;;;;;;6.30;3.97;;;24.40;99.90;;;;;;5040708;28;20451;-87
2022/05/17 12:24:53;;;;;;;5.32;4.00;;;24.40;99.90;;;;;;5026047;28;20919;-88
2022/05/17 12:27:49;;;;;;;6.10;4.30;;;24.60;99.90;;;;;;5023900;28;20739;-85
2022/05/17 12:33:24;;;;;;;8.00;4.13;;;24.30;99.90;;;;;;5036448;28;20411;-86
2022/05/17 12:35:51;;;;;;;6.55;4.60;;;24.00;99.90;;;;;;5035207;28;20382;-84
2022/05/17 12:43:56;;;;;;;7.55;4.78;;;23.90;99.90;;;;;;5037570;28;20377;-88
2022/05/17 12:46:31;;;;;;;5.60;4.70;;;;;;;;;;5016857;28;20425;-86
2022/05/17 12:48:58;;;;;;;6.50;4.90;;;;;;;;;;5017302;28;20458;-87
2022/05/17 12:51:26;;;;;;;6.93;5.10;;;;;;;;;;5032881;28;20957;-87
2022/05/17 12:53:53;;;;;;;7.40;5.03;;;;;;;;;;5019445;28;20381;-85
2022/05/17 12:56:22;;;;;;;7.00;4.77;;;;;;;;;;5039569;28;20386;-87
2022/05/17 12:58:50;;;;;;;8.30;5.10;;;;;;;;;;5021800;28;20741;-89
2022/05/17 13:01:21;;;;;;;8.43;5.30;;;;;;;;;;5049702;28;20381;-86
2022/05/17 13:03:46;;;;;;;6.05;4.85;;;23.20;99.90;;;;;;5031695;28;20386;-86
2022/05/17 13:06:12;;;;;;;5.10;3.90;;;23.10;99.90;;;;;;5031704;28;20396;-86
2022/05/17 13:08:39;;;;;;;4.93;3.92;;;22.80;99.90;;;;;;5018890;28;20767;-88
2022/05/17 13:11:14;;;;;;;6.80;4.78;;;22.90;99.90;;;;;;5013279;28;20377;-87
2022/05/17 13:13:41;;;;;;;7.45;5.15;;;22.90;99.90;;;;;;5032249;28;20389;-83
2022/05/17 13:16:16;;;;;;;5.83;4.20;;;23.10;99.90;;;;;;5034974;28;20389;-87
2022/05/17 13:18:44;;;;;;;7.32;4.70;;;23.00;99.90;;;;;;5037379;28;20415;-88
2022/05/17 13:21:27;;;;;;;6.85;4.47;;;22.80;99.90;;;;;;5023086;28;20385;-89
2022/05/17 13:23:59;;;;;;;6.40;4.22;;;22.80;99.90;;;;;;5040959;28;20459;-87
2022/05/17 13:26:31;;;;;;;5.20;3.70;;;22.80;99.90;;;;;;5023272;28;20385;-85
2022/05/17 13:29:29;;;;;;;4.90;4.00;;;23.10;99.90;;;;;;5022625;28;20931;-86
2022/05/17 13:31:56;;;;;;;5.80;3.88;;;23.10;99.90;;;;;;5041453;28;20456;-88
2022/05/17 13:34:28;;;;;;;7.88;4.35;;;23.10;99.90;;;;;;5019470;28;20397;-87
2022/05/17 13:37:03;;;;;;;6.97;4.07;;;;;;;;;;5044340;28;20447;-86
2022/05/17 13:39:30;;;;;;;7.25;5.13;;;23.80;99.90;;;;;;5026872;28;20385;-84
2022/05/17 13:41:57;;;;;;;6.53;4.30;;;23.90;99.90;;;;;;5018130;28;20388;-88
2022/05/17 13:44:32;;;;;;;7.65;4.60;;;24.10;99.90;;;;;;5023070;28;20477;-84
2022/05/17 13:47:00;;;;;;;6.45;4.97;;;24.20;99.90;;;;;;5042444;28;20383;-84
2022/05/17 13:49:36;;;;;;;7.93;5.25;;;24.20;99.90;;;;;;5023278;28;20501;-84
2022/05/17 13:52:28;;;;;;;5.85;4.45;;;24.40;99.90;;;;;;5023111;28;20381;-87
2022/05/17 13:54:58;;;;;;;8.32;4.88;;;24.50;99.90;;;;;;5024934;28;20432;-89
2022/05/17 13:57:36;;;;;;;7.20;4.50;;;24.50;99.90;;;;;;5045255;28;20380;-86
2022/05/17 14:00:16;;;;;;;6.15;4.90;;;24.40;99.90;;;;;;5041651;28;20408;-88
2022/05/17 14:02:48;;;;;;;5.93;4.45;;;24.30;99.90;;;;;;5028552;28;20376;-88
2022/05/17 14:05:16;;;;;;;6.03;4.68;;;24.00;99.90;;;;;;5030274;28;20377;-88
2022/05/17 14:07:53;;;;;;;7.90;4.88;;;23.80;99.90;;;;;;5023863;28;20382;-84
2022/05/17 14:13:27;;;;;;;5.95;4.55;;;23.70;99.90;;;;;;5038571;28;20383;-86
2022/05/17 14:15:53;;;;;;;5.47;4.63;;;23.70;99.90;;;;;;5044541;28;20421;-86
2022/05/17 14:18:30;;;;;;;8.93;5.10;;;23.70;99.90;;;;;;5024408;28;20399;-85